sensor_id;sensor_type;location;lat;lon;timestamp;noise_LAeq;noise_LA_min;noise_LA_max;noise_LA01;noise_LA95
61270;Laerm;47150;53.032;8.960;2023-02-02T00:01:57;38.49;37.30;41.30;;
61270;Laerm;47150;53.032;8.960;2023-02-02T00:04:33;38.47;36.97;39.62;;
61270;Laerm;47150;53.032;8.960;2023-02-02T00:07:01;38.45;36.88;39.76;;
61270;Laerm;47150;53.032;8.960;2023-02-02T00:09:30;38.48;37.19;44.28;;
61270;Laerm;47150;53.032;8.960;2023-02-02T00:11:57;38.44;37.23;40.55;;
61270;Laerm;47150;53.032;8.960;2023-02-02T00:14:23;38.47;37.23;43.44;;
61270;Laerm;47150;53.032;8.960;2023-02-02T00:16:55;38.52;36.92;48.10;;
61270;Laerm;47150;53.032;8.960;2023-02-02T00:19:30;38.49;37.15;45.79;;
61270;Laerm;47150;53.032;8.960;2023-02-02T00:21:56;38.49;37.19;48.09;;
61270;Laerm;47150;53.032;8.960;2023-02-02T00:39:59;38.61;36.97;48.31;;
61270;Laerm;47150;53.032;8.960;2023-02-02T00:51:13;38.65;37.25;44.26;;
61270;Laerm;47150;53.032;8.960;2023-02-02T00:54:56;38.70;37.34;49.51;;
61270;Laerm;47150;53.032;8.960;2023-02-02T01:02:48;38.73;37.29;45.67;;
61270;Laerm;47150;53.032;8.960;2023-02-02T01:20:39;38.75;37.40;41.51;;
61270;Laerm;47150;53.032;8.960;2023-02-02T01:24:06;38.83;37.39;46.22;;
61270;Laerm;47150;53.032;8.960;2023-02-02T01:27:43;38.80;37.48;41.57;;
61270;Laerm;47150;53.032;8.960;2023-02-02T01:31:16;38.84;37.56;42.06;;
61270;Laerm;47150;53.032;8.960;2023-02-02T01:33:44;38.84;37.52;42.08;;
61270;Laerm;47150;53.032;8.960;2023-02-02T01:36:17;38.84;37.38;40.56;;
61270;Laerm;47150;53.032;8.960;2023-02-02T01:38:43;38.88;37.60;42.48;;
61270;Laerm;47150;53.032;8.960;2023-02-02T01:41:16;38.88;37.50;40.03;;
61270;Laerm;47150;53.032;8.960;2023-02-02T01:46:16;38.92;37.55;40.97;;
61270;Laerm;47150;53.032;8.960;2023-02-02T01:49:12;38.93;37.67;40.10;;
61270;Laerm;47150;53.032;8.960;2023-02-02T01:51:49;38.92;37.74;40.40;;
61270;Laerm;47150;53.032;8.960;2023-02-02T01:54:22;38.92;37.52;41.42;;
61270;Laerm;47150;53.032;8.960;2023-02-02T01:57:03;38.95;37.66;40.26;;
61270;Laerm;47150;53.032;8.960;2023-02-02T01:59:31;38.95;37.13;40.19;;
61270;Laerm;47150;53.032;8.960;2023-02-02T02:01:57;38.98;37.53;40.25;;
61270;Laerm;47150;53.032;8.960;2023-02-02T02:04:25;38.99;37.63;40.38;;
61270;Laerm;47150;53.032;8.960;2023-02-02T02:06:52;38.99;37.79;40.13;;
61270;Laerm;47150;53.032;8.960;2023-02-02T02:09:18;39.01;37.59;40.24;;
61270;Laerm;47150;53.032;8.960;2023-02-02T02:11:44;39.01;37.90;41.13;;
61270;Laerm;47150;53.032;8.960;2023-02-02T02:14:12;39.00;37.57;40.42;;
61270;Laerm;47150;53.032;8.960;2023-02-02T02:20:21;39.01;37.58;40.30;;
61270;Laerm;47150;53.032;8.960;2023-02-02T02:23:52;39.00;37.71;40.32;;
61270;Laerm;47150;53.032;8.960;2023-02-02T02:27:06;38.99;37.55;40.25;;
61270;Laerm;47150;53.032;8.960;2023-02-02T02:32:51;38.97;37.54;40.05;;
61270;Laerm;47150;53.032;8.960;2023-02-02T02:35:39;38.99;37.47;40.25;;
61270;Laerm;47150;53.032;8.960;2023-02-02T02:38:25;39.01;37.62;40.25;;
61270;Laerm;47150;53.032;8.960;2023-02-02T02:41:07;39.02;37.70;40.26;;
61270;Laerm;47150;53.032;8.960;2023-02-02T02:43:47;39.02;37.72;40.14;;
61270;Laerm;47150;53.032;8.960;2023-02-02T02:46:15;39.03;37.76;40.16;;
61270;Laerm;47150;53.032;8.960;2023-02-02T02:48:44;39.05;37.89;40.27;;
61270;Laerm;47150;53.032;8.960;2023-02-02T02:51:50;39.08;37.83;40.46;;
61270;Laerm;47150;53.032;8.960;2023-02-02T02:54:32;39.10;37.76;40.39;;
61270;Laerm;47150;53.032;8.960;2023-02-02T02:57:23;39.10;37.69;40.24;;
61270;Laerm;47150;53.032;8.960;2023-02-02T03:01:08;39.11;37.92;40.66;;
61270;Laerm;47150;53.032;8.960;2023-02-02T03:08:44;39.11;37.84;40.27;;
61270;Laerm;47150;53.032;8.960;2023-02-02T03:11:14;39.12;37.83;40.47;;
61270;Laerm;47150;53.032;8.960;2023-02-02T03:13:41;39.15;37.86;40.62;;
61270;Laerm;47150;53.032;8.960;2023-02-02T03:16:09;39.16;37.86;40.44;;
61270;Laerm;47150;53.032;8.960;2023-02-02T03:18:35;39.15;37.79;40.44;;
61270;Laerm;47150;53.032;8.960;2023-02-02T03:21:00;39.15;37.66;40.39;;
61270;Laerm;47150;53.032;8.960;2023-02-02T03:23:26;39.17;37.60;40.30;;
61270;Laerm;47150;53.032;8.960;2023-02-02T03:25:53;39.20;38.02;40.32;;
61270;Laerm;47150;53.032;8.960;2023-02-02T03:28:22;39.20;37.94;40.59;;
61270;Laerm;47150;53.032;8.960;2023-02-02T03:30:49;39.18;37.83;40.24;;
61270;Laerm;47150;53.032;8.960;2023-02-02T03:33:16;39.18;37.85;40.37;;
61270;Laerm;47150;53.032;8.960;2023-02-02T03:35:43;39.16;37.80;40.48;;
61270;Laerm;47150;53.032;8.960;2023-02-02T03:38:09;39.13;37.86;40.39;;
61270;Laerm;47150;53.032;8.960;2023-02-02T03:40:34;39.13;37.78;40.23;;
61270;Laerm;47150;53.032;8.960;2023-02-02T03:43:00;39.14;37.95;40.34;;
61270;Laerm;47150;53.032;8.960;2023-02-02T03:45:27;39.15;37.74;40.41;;
61270;Laerm;47150;53.032;8.960;2023-02-02T03:47:53;39.13;37.72;40.35;;
61270;Laerm;47150;53.032;8.960;2023-02-02T03:50:19;39.08;37.59;40.39;;
61270;Laerm;47150;53.032;8.960;2023-02-02T03:52:44;39.04;37.52;40.28;;
61270;Laerm;47150;53.032;8.960;2023-02-02T03:55:10;39.00;37.84;40.56;;
61270;Laerm;47150;53.032;8.960;2023-02-02T03:57:35;38.98;37.39;40.15;;
61270;Laerm;47150;53.032;8.960;2023-02-02T04:00:01;38.95;37.75;40.09;;
61270;Laerm;47150;53.032;8.960;2023-02-02T04:02:27;38.94;37.49;40.09;;
61270;Laerm;47150;53.032;8.960;2023-02-02T04:04:53;38.93;37.69;40.19;;
61270;Laerm;47150;53.032;8.960;2023-02-02T04:07:18;38.92;37.68;39.98;;
61270;Laerm;47150;53.032;8.960;2023-02-02T04:09:44;38.92;37.53;40.17;;
61270;Laerm;47150;53.032;8.960;2023-02-02T04:12:09;38.92;37.60;40.15;;
61270;Laerm;47150;53.032;8.960;2023-02-02T04:14:35;38.92;37.80;40.10;;
61270;Laerm;47150;53.032;8.960;2023-02-02T04:17:00;38.93;37.43;40.03;;
61270;Laerm;47150;53.032;8.960;2023-02-02T04:19:26;38.95;37.89;40.06;;
61270;Laerm;47150;53.032;8.960;2023-02-02T04:22:19;38.94;37.57;40.15;;
61270;Laerm;47150;53.032;8.960;2023-02-02T04:24:44;38.95;37.76;40.06;;
61270;Laerm;47150;53.032;8.960;2023-02-02T04:27:10;38.94;37.69;40.12;;
61270;Laerm;47150;53.032;8.960;2023-02-02T04:29:36;38.93;37.61;40.07;;
61270;Laerm;47150;53.032;8.960;2023-02-02T04:32:01;38.92;37.61;40.13;;
61270;Laerm;47150;53.032;8.960;2023-02-02T04:34:27;38.92;37.67;40.08;;
61270;Laerm;47150;53.032;8.960;2023-02-02T04:36:52;38.92;37.51;40.16;;
61270;Laerm;47150;53.032;8.960;2023-02-02T04:39:18;38.96;37.71;40.35;;
61270;Laerm;47150;53.032;8.960;2023-02-02T04:41:43;38.97;37.63;40.38;;
61270;Laerm;47150;53.032;8.960;2023-02-02T04:44:14;38.96;37.43;40.04;;
61270;Laerm;47150;53.032;8.960;2023-02-02T04:46:44;38.93;37.61;40.16;;
61270;Laerm;47150;53.032;8.960;2023-02-02T04:49:13;38.94;37.74;40.01;;
61270;Laerm;47150;53.032;8.960;2023-02-02T04:51:39;38.93;37.70;40.20;;
61270;Laerm;47150;53.032;8.960;2023-02-02T04:54:06;38.92;37.61;40.24;;
61270;Laerm;47150;53.032;8.960;2023-02-02T04:56:31;38.90;37.44;40.31;;
61270;Laerm;47150;53.032;8.960;2023-02-02T04:58:57;38.89;37.76;40.00;;
61270;Laerm;47150;53.032;8.960;2023-02-02T05:01:23;38.93;37.50;40.12;;
61270;Laerm;47150;53.032;8.960;2023-02-02T05:03:49;38.91;37.59;40.27;;
61270;Laerm;47150;53.032;8.960;2023-02-02T05:06:16;38.91;37.58;40.37;;
61270;Laerm;47150;53.032;8.960;2023-02-02T05:08:44;38.89;37.47;40.31;;
61270;Laerm;47150;53.032;8.960;2023-02-02T05:11:20;38.89;37.72;40.03;;
61270;Laerm;47150;53.032;8.960;2023-02-02T05:13:51;38.86;37.71;40.22;;
61270;Laerm;47150;53.032;8.960;2023-02-02T05:16:19;38.85;37.56;40.00;;
61270;Laerm;47150;53.032;8.960;2023-02-02T05:18:50;38.84;37.34;39.96;;
61270;Laerm;47150;53.032;8.960;2023-02-02T05:21:16;38.82;37.21;39.96;;
61270;Laerm;47150;53.032;8.960;2023-02-02T05:23:42;38.81;37.47;39.88;;
61270;Laerm;47150;53.032;8.960;2023-02-02T05:26:14;38.82;37.53;40.24;;
61270;Laerm;47150;53.032;8.960;2023-02-02T05:28:40;38.83;37.51;39.91;;
61270;Laerm;47150;53.032;8.960;2023-02-02T05:31:08;38.82;37.62;39.98;;
61270;Laerm;47150;53.032;8.960;2023-02-02T05:33:34;38.80;37.59;39.86;;
61270;Laerm;47150;53.032;8.960;2023-02-02T05:35:59;38.78;37.42;40.05;;
61270;Laerm;47150;53.032;8.960;2023-02-02T05:38:25;38.74;37.42;39.80;;
61270;Laerm;47150;53.032;8.960;2023-02-02T05:40:51;38.73;37.58;40.00;;
61270;Laerm;47150;53.032;8.960;2023-02-02T05:43:16;38.71;37.50;39.91;;
61270;Laerm;47150;53.032;8.960;2023-02-02T05:45:42;38.73;37.55;39.97;;
61270;Laerm;47150;53.032;8.960;2023-02-02T05:48:12;38.74;37.58;40.02;;
61270;Laerm;47150;53.032;8.960;2023-02-02T05:50:41;38.78;37.45;40.11;;
61270;Laerm;47150;53.032;8.960;2023-02-02T05:53:09;38.79;37.58;39.93;;
61270;Laerm;47150;53.032;8.960;2023-02-02T05:55:37;38.76;37.45;39.98;;
61270;Laerm;47150;53.032;8.960;2023-02-02T05:58:02;38.74;37.36;39.96;;
61270;Laerm;47150;53.032;8.960;2023-02-02T06:00:28;38.71;37.37;39.92;;
61270;Laerm;47150;53.032;8.960;2023-02-02T06:02:54;38.70;37.22;39.99;;
61270;Laerm;47150;53.032;8.960;2023-02-02T06:05:19;38.68;37.36;39.75;;
61270;Laerm;47150;53.032;8.960;2023-02-02T06:07:45;38.71;37.49;40.00;;
61270;Laerm;47150;53.032;8.960;2023-02-02T06:10:10;38.78;37.47;39.84;;
61270;Laerm;47150;53.032;8.960;2023-02-02T06:12:36;38.81;37.63;39.98;;
61270;Laerm;47150;53.032;8.960;2023-02-02T06:15:02;38.80;37.54;40.01;;
61270;Laerm;47150;53.032;8.960;2023-02-02T06:17:27;38.79;37.57;39.91;;
61270;Laerm;47150;53.032;8.960;2023-02-02T06:19:53;38.79;37.66;39.95;;
61270;Laerm;47150;53.032;8.960;2023-02-02T06:22:18;38.75;37.60;40.02;;
61270;Laerm;47150;53.032;8.960;2023-02-02T06:24:44;38.73;37.51;39.83;;
61270;Laerm;47150;53.032;8.960;2023-02-02T06:27:09;38.74;37.47;40.10;;
61270;Laerm;47150;53.032;8.960;2023-02-02T06:29:35;38.75;37.40;39.85;;
61270;Laerm;47150;53.032;8.960;2023-02-02T06:32:01;38.76;37.58;39.87;;
61270;Laerm;47150;53.032;8.960;2023-02-02T06:34:26;38.79;37.57;39.89;;
61270;Laerm;47150;53.032;8.960;2023-02-02T06:36:52;38.79;37.50;39.89;;
61270;Laerm;47150;53.032;8.960;2023-02-02T06:39:17;38.77;37.38;39.89;;
61270;Laerm;47150;53.032;8.960;2023-02-02T06:41:43;38.77;37.41;39.95;;
61270;Laerm;47150;53.032;8.960;2023-02-02T06:44:12;38.76;37.29;39.90;;
61270;Laerm;47150;53.032;8.960;2023-02-02T06:46:40;38.73;37.58;39.83;;
61270;Laerm;47150;53.032;8.960;2023-02-02T06:49:07;38.67;37.57;39.75;;
61270;Laerm;47150;53.032;8.960;2023-02-02T06:51:32;38.67;37.46;39.84;;
61270;Laerm;47150;53.032;8.960;2023-02-02T06:53:58;38.67;37.47;39.97;;
61270;Laerm;47150;53.032;8.960;2023-02-02T06:56:23;38.65;37.17;39.90;;
61270;Laerm;47150;53.032;8.960;2023-02-02T06:58:49;38.71;37.40;39.99;;
61270;Laerm;47150;53.032;8.960;2023-02-02T07:01:14;38.72;37.40;40.25;;
61270;Laerm;47150;53.032;8.960;2023-02-02T07:03:40;38.69;37.41;39.91;;
61270;Laerm;47150;53.032;8.960;2023-02-02T07:06:21;38.62;37.37;39.75;;
61270;Laerm;47150;53.032;8.960;2023-02-02T07:08:49;38.55;37.29;39.84;;
61270;Laerm;47150;53.032;8.960;2023-02-02T07:11:16;38.50;37.14;39.80;;
61270;Laerm;47150;53.032;8.960;2023-02-02T07:13:46;38.52;37.19;39.70;;
61270;Laerm;47150;53.032;8.960;2023-02-02T07:16:14;38.53;37.29;39.72;;
61270;Laerm;47150;53.032;8.960;2023-02-02T07:18:41;38.55;37.41;39.58;;
61270;Laerm;47150;53.032;8.960;2023-02-02T07:21:22;38.57;37.02;39.75;;
61270;Laerm;47150;53.032;8.960;2023-02-02T07:23:49;38.55;37.25;39.78;;
61270;Laerm;47150;53.032;8.960;2023-02-02T07:26:17;38.55;37.39;39.79;;
61270;Laerm;47150;53.032;8.960;2023-02-02T07:28:43;38.57;37.33;39.83;;
61270;Laerm;47150;53.032;8.960;2023-02-02T07:31:20;38.59;37.50;39.70;;
61270;Laerm;47150;53.032;8.960;2023-02-02T07:33:47;38.58;37.27;39.64;;
61270;Laerm;47150;53.032;8.960;2023-02-02T07:36:16;38.56;37.44;39.74;;
61270;Laerm;47150;53.032;8.960;2023-02-02T07:38:44;38.52;37.08;39.62;;
61270;Laerm;47150;53.032;8.960;2023-02-02T07:41:10;38.51;37.29;39.78;;
61270;Laerm;47150;53.032;8.960;2023-02-02T07:43:36;38.51;37.28;39.62;;
61270;Laerm;47150;53.032;8.960;2023-02-02T07:46:04;38.49;37.35;39.93;;
61270;Laerm;47150;53.032;8.960;2023-02-02T07:48:33;38.46;37.20;39.53;;
61270;Laerm;47150;53.032;8.960;2023-02-02T07:51:06;38.47;37.30;39.68;;
61270;Laerm;47150;53.032;8.960;2023-02-02T07:53:33;38.48;37.21;39.79;;
61270;Laerm;47150;53.032;8.960;2023-02-02T07:56:13;38.45;37.24;39.70;;
61270;Laerm;47150;53.032;8.960;2023-02-02T07:58:39;38.44;37.20;39.70;;
61270;Laerm;47150;53.032;8.960;2023-02-02T08:01:08;38.43;37.22;39.54;;
61270;Laerm;47150;53.032;8.960;2023-02-02T08:03:35;38.42;36.89;39.77;;
61270;Laerm;47150;53.032;8.960;2023-02-02T08:06:11;38.42;37.08;39.46;;
61270;Laerm;47150;53.032;8.960;2023-02-02T08:08:38;38.46;37.29;39.60;;
61270;Laerm;47150;53.032;8.960;2023-02-02T08:11:04;38.46;37.18;39.61;;
61270;Laerm;47150;53.032;8.960;2023-02-02T08:13:29;38.48;37.27;39.63;;
61270;Laerm;47150;53.032;8.960;2023-02-02T08:15:58;38.50;37.05;39.65;;
61270;Laerm;47150;53.032;8.960;2023-02-02T08:18:23;38.50;37.08;39.77;;
61270;Laerm;47150;53.032;8.960;2023-02-02T08:20:49;38.52;37.27;39.81;;
61270;Laerm;47150;53.032;8.960;2023-02-02T08:23:16;38.54;37.37;39.66;;
61270;Laerm;47150;53.032;8.960;2023-02-02T08:25:48;38.56;37.38;39.84;;
61270;Laerm;47150;53.032;8.960;2023-02-02T08:28:14;38.60;37.43;39.77;;
61270;Laerm;47150;53.032;8.960;2023-02-02T08:30:40;38.63;37.50;39.70;;
61270;Laerm;47150;53.032;8.960;2023-02-02T08:33:05;38.71;37.56;39.88;;
61270;Laerm;47150;53.032;8.960;2023-02-02T08:35:31;38.73;37.45;39.95;;
61270;Laerm;47150;53.032;8.960;2023-02-02T08:37:56;38.77;37.65;39.91;;
61270;Laerm;47150;53.032;8.960;2023-02-02T08:40:21;38.77;37.50;40.13;;
61270;Laerm;47150;53.032;8.960;2023-02-02T08:42:52;38.79;37.51;39.86;;
61270;Laerm;47150;53.032;8.960;2023-02-02T08:45:19;38.81;37.65;39.98;;
61270;Laerm;47150;53.032;8.960;2023-02-02T08:47:45;38.84;37.60;39.88;;
61270;Laerm;47150;53.032;8.960;2023-02-02T08:50:10;38.86;37.54;40.06;;
61270;Laerm;47150;53.032;8.960;2023-02-02T08:52:36;38.88;37.51;40.03;;
61270;Laerm;47150;53.032;8.960;2023-02-02T08:55:03;38.92;37.62;40.14;;
61270;Laerm;47150;53.032;8.960;2023-02-02T08:57:28;38.94;37.59;39.98;;
61270;Laerm;47150;53.032;8.960;2023-02-02T08:59:57;38.96;37.66;40.11;;
61270;Laerm;47150;53.032;8.960;2023-02-02T09:02:23;38.96;37.63;40.08;;
61270;Laerm;47150;53.032;8.960;2023-02-02T09:04:48;38.99;37.55;40.27;;
61270;Laerm;47150;53.032;8.960;2023-02-02T09:07:14;39.03;37.78;40.40;;
61270;Laerm;47150;53.032;8.960;2023-02-02T09:09:39;39.06;37.60;40.24;;
61270;Laerm;47150;53.032;8.960;2023-02-02T09:12:05;39.04;37.78;40.33;;
61270;Laerm;47150;53.032;8.960;2023-02-02T09:14:30;39.03;37.73;40.39;;
61270;Laerm;47150;53.032;8.960;2023-02-02T09:16:56;39.01;37.80;40.17;;
61270;Laerm;47150;53.032;8.960;2023-02-02T09:19:21;39.03;37.71;40.08;;
61270;Laerm;47150;53.032;8.960;2023-02-02T09:21:50;39.07;37.63;40.34;;
61270;Laerm;47150;53.032;8.960;2023-02-02T09:24:15;39.09;37.74;40.24;;
61270;Laerm;47150;53.032;8.960;2023-02-02T09:26:43;39.08;37.89;40.19;;
61270;Laerm;47150;53.032;8.960;2023-02-02T09:29:15;39.11;37.77;40.23;;
61270;Laerm;47150;53.032;8.960;2023-02-02T09:31:42;39.11;37.87;40.53;;
61270;Laerm;47150;53.032;8.960;2023-02-02T09:34:12;39.11;37.88;40.18;;
61270;Laerm;47150;53.032;8.960;2023-02-02T09:36:39;39.16;37.91;40.36;;
61270;Laerm;47150;53.032;8.960;2023-02-02T09:39:06;39.16;37.96;40.58;;
61270;Laerm;47150;53.032;8.960;2023-02-02T09:50:03;39.24;37.86;40.47;;
61270;Laerm;47150;53.032;8.960;2023-02-02T09:52:37;39.24;38.06;40.52;;
61270;Laerm;47150;53.032;8.960;2023-02-02T09:55:44;39.26;37.95;40.51;;
61270;Laerm;47150;53.032;8.960;2023-02-02T09:58:27;39.27;37.86;40.56;;
61270;Laerm;47150;53.032;8.960;2023-02-02T10:01:22;39.29;37.83;40.66;;
61270;Laerm;47150;53.032;8.960;2023-02-02T10:04:18;39.30;37.92;40.35;;
61270;Laerm;47150;53.032;8.960;2023-02-02T10:06:49;39.33;38.08;40.66;;
61270;Laerm;47150;53.032;8.960;2023-02-02T10:09:43;39.37;38.13;40.70;;
61270;Laerm;47150;53.032;8.960;2023-02-02T10:12:34;39.36;38.09;40.62;;
61270;Laerm;47150;53.032;8.960;2023-02-02T10:20:46;39.37;38.25;40.68;;
61270;Laerm;47150;53.032;8.960;2023-02-02T10:23:37;39.39;38.03;40.68;;
61270;Laerm;47150;53.032;8.960;2023-02-02T10:34:29;39.44;38.07;40.53;;
61270;Laerm;47150;53.032;8.960;2023-02-02T10:40:04;39.18;37.76;40.74;;
61270;Laerm;47150;53.032;8.960;2023-02-02T10:45:50;38.59;37.18;40.14;;
61270;Laerm;47150;53.032;8.960;2023-02-02T10:48:27;38.54;36.92;39.93;;
61270;Laerm;47150;53.032;8.960;2023-02-02T10:51:01;38.43;36.64;39.98;;
61270;Laerm;47150;53.032;8.960;2023-02-02T10:53:31;38.35;36.79;41.69;;
61270;Laerm;47150;53.032;8.960;2023-02-02T10:58:33;38.11;36.45;40.22;;
61270;Laerm;47150;53.032;8.960;2023-02-02T11:01:00;37.95;36.43;39.37;;
61270;Laerm;47150;53.032;8.960;2023-02-02T11:03:31;38.06;36.55;39.38;;
61270;Laerm;47150;53.032;8.960;2023-02-02T11:06:03;38.18;36.78;40.76;;
61270;Laerm;47150;53.032;8.960;2023-02-02T11:08:52;38.30;36.72;39.41;;
61270;Laerm;47150;53.032;8.960;2023-02-02T11:11:42;38.31;36.58;39.67;;
61270;Laerm;47150;53.032;8.960;2023-02-02T11:14:19;38.50;37.19;39.72;;
61270;Laerm;47150;53.032;8.960;2023-02-02T11:17:02;38.51;36.74;42.66;;
61270;Laerm;47150;53.032;8.960;2023-02-02T11:19:33;38.62;37.18;40.90;;
61270;Laerm;47150;53.032;8.960;2023-02-02T11:22:03;38.70;37.22;41.42;;
61270;Laerm;47150;53.032;8.960;2023-02-02T11:24:45;38.42;36.87;39.76;;
61270;Laerm;47150;53.032;8.960;2023-02-02T11:27:22;38.16;36.76;39.50;;
61270;Laerm;47150;53.032;8.960;2023-02-02T11:29:52;38.27;36.89;39.72;;
61270;Laerm;47150;53.032;8.960;2023-02-02T11:35:21;38.63;37.31;40.07;;
61270;Laerm;47150;53.032;8.960;2023-02-02T11:38:14;38.21;36.53;39.64;;
61270;Laerm;47150;53.032;8.960;2023-02-02T11:40:52;38.03;36.63;39.38;;
61270;Laerm;47150;53.032;8.960;2023-02-02T11:43:27;37.94;36.40;39.26;;
61270;Laerm;47150;53.032;8.960;2023-02-02T11:46:03;37.84;36.54;39.33;;
61270;Laerm;47150;53.032;8.960;2023-02-02T11:48:37;37.74;36.24;39.29;;
61270;Laerm;47150;53.032;8.960;2023-02-02T11:51:05;37.72;36.24;39.01;;
61270;Laerm;47150;53.032;8.960;2023-02-02T11:53:39;37.73;36.24;40.36;;
61270;Laerm;47150;53.032;8.960;2023-02-02T11:56:20;37.67;36.06;39.26;;
61270;Laerm;47150;53.032;8.960;2023-02-02T11:58:55;37.62;36.20;39.09;;
61270;Laerm;47150;53.032;8.960;2023-02-02T12:01:41;37.77;36.30;42.36;;
61270;Laerm;47150;53.032;8.960;2023-02-02T12:06:39;38.31;36.98;39.74;;
61270;Laerm;47150;53.032;8.960;2023-02-02T12:09:22;38.48;36.95;39.78;;
61270;Laerm;47150;53.032;8.960;2023-02-02T12:12:06;38.61;37.33;39.91;;
61270;Laerm;47150;53.032;8.960;2023-02-02T12:17:36;38.84;37.43;40.23;;
61270;Laerm;47150;53.032;8.960;2023-02-02T12:26:31;39.07;37.38;40.31;;
61270;Laerm;47150;53.032;8.960;2023-02-02T12:34:46;39.22;38.04;40.49;;
61270;Laerm;47150;53.032;8.960;2023-02-02T12:51:20;39.25;37.99;40.48;;
61270;Laerm;47150;53.032;8.960;2023-02-02T12:56:50;39.28;37.90;40.42;;
61270;Laerm;47150;53.032;8.960;2023-02-02T13:02:53;39.30;37.71;40.58;;
61270;Laerm;47150;53.032;8.960;2023-02-02T13:05:38;39.30;37.95;40.43;;
61270;Laerm;47150;53.032;8.960;2023-02-02T13:08:20;39.27;37.80;40.67;;
61270;Laerm;47150;53.032;8.960;2023-02-02T13:10:56;39.18;37.52;40.66;;
61270;Laerm;47150;53.032;8.960;2023-02-02T13:13:31;39.11;37.92;40.43;;
61270;Laerm;47150;53.032;8.960;2023-02-02T13:16:06;39.22;37.92;40.81;;
61270;Laerm;47150;53.032;8.960;2023-02-02T13:19:06;39.24;37.86;40.53;;
61270;Laerm;47150;53.032;8.960;2023-02-02T13:21:38;39.14;37.74;40.87;;
61270;Laerm;47150;53.032;8.960;2023-02-02T13:24:06;39.16;37.89;40.49;;
61270;Laerm;47150;53.032;8.960;2023-02-02T13:26:41;39.04;37.73;40.48;;
61270;Laerm;47150;53.032;8.960;2023-02-02T13:29:30;39.05;37.67;40.40;;
61270;Laerm;47150;53.032;8.960;2023-02-02T13:32:31;39.10;37.73;40.46;;
61270;Laerm;47150;53.032;8.960;2023-02-02T13:35:21;39.15;37.81;40.35;;
61270;Laerm;47150;53.032;8.960;2023-02-02T13:38:18;39.17;37.81;40.37;;
61270;Laerm;47150;53.032;8.960;2023-02-02T13:40:46;39.14;37.80;40.62;;
61270;Laerm;47150;53.032;8.960;2023-02-02T13:43:47;39.14;37.54;40.55;;
61270;Laerm;47150;53.032;8.960;2023-02-02T13:46:55;39.03;37.57;40.32;;
61270;Laerm;47150;53.032;8.960;2023-02-02T13:49:41;38.98;37.62;40.19;;
61270;Laerm;47150;53.032;8.960;2023-02-02T14:00:42;38.86;37.31;40.20;;
61270;Laerm;47150;53.032;8.960;2023-02-02T14:06:08;38.95;37.58;40.06;;
61270;Laerm;47150;53.032;8.960;2023-02-02T14:08:36;38.99;37.47;40.22;;
61270;Laerm;47150;53.032;8.960;2023-02-02T14:11:05;38.95;37.50;40.36;;
61270;Laerm;47150;53.032;8.960;2023-02-02T14:13:47;38.99;37.58;40.17;;
61270;Laerm;47150;53.032;8.960;2023-02-02T14:18:59;39.04;37.73;40.60;;
61270;Laerm;47150;53.032;8.960;2023-02-02T14:34:43;39.26;37.86;40.72;;
61270;Laerm;47150;53.032;8.960;2023-02-02T14:48:39;39.33;37.78;40.67;;
61270;Laerm;47150;53.032;8.960;2023-02-02T14:51:17;39.35;38.00;40.59;;
61270;Laerm;47150;53.032;8.960;2023-02-02T14:53:58;39.37;38.12;40.87;;
61270;Laerm;47150;53.032;8.960;2023-02-02T14:56:46;39.39;38.11;40.62;;
61270;Laerm;47150;53.032;8.960;2023-02-02T14:59:28;39.40;37.73;40.55;;
61270;Laerm;47150;53.032;8.960;2023-02-02T15:02:05;39.42;38.17;40.87;;
61270;Laerm;47150;53.032;8.960;2023-02-02T15:04:34;39.43;38.18;40.62;;
61270;Laerm;47150;53.032;8.960;2023-02-02T15:09:54;39.47;38.12;40.74;;
61270;Laerm;47150;53.032;8.960;2023-02-02T15:12:38;39.48;38.24;40.86;;
61270;Laerm;47150;53.032;8.960;2023-02-02T15:15:20;39.50;37.56;40.65;;
61270;Laerm;47150;53.032;8.960;2023-02-02T15:18:05;39.52;38.22;40.75;;
61270;Laerm;47150;53.032;8.960;2023-02-02T15:20:44;39.54;38.10;40.84;;
61270;Laerm;47150;53.032;8.960;2023-02-02T15:23:29;39.55;38.07;40.88;;
61270;Laerm;47150;53.032;8.960;2023-02-02T15:31:40;39.56;38.20;40.98;;
61270;Laerm;47150;53.032;8.960;2023-02-02T15:34:25;39.54;38.21;40.65;;
61270;Laerm;47150;53.032;8.960;2023-02-02T15:36:55;39.53;38.15;40.97;;
61270;Laerm;47150;53.032;8.960;2023-02-02T15:39:39;39.53;38.22;40.87;;
61270;Laerm;47150;53.032;8.960;2023-02-02T15:42:16;39.51;37.99;40.80;;
61270;Laerm;47150;53.032;8.960;2023-02-02T15:45:02;39.53;38.34;41.35;;
61270;Laerm;47150;53.032;8.960;2023-02-02T15:47:37;39.50;38.38;40.58;;
61270;Laerm;47150;53.032;8.960;2023-02-02T15:50:18;39.48;38.05;41.20;;
61270;Laerm;47150;53.032;8.960;2023-02-02T15:52:48;39.47;38.25;40.68;;
61270;Laerm;47150;53.032;8.960;2023-02-02T15:55:22;39.49;38.06;40.80;;
61270;Laerm;47150;53.032;8.960;2023-02-02T15:57:49;39.49;38.11;40.79;;
61270;Laerm;47150;53.032;8.960;2023-02-02T16:00:28;39.50;38.28;40.74;;
61270;Laerm;47150;53.032;8.960;2023-02-02T16:03:09;39.50;37.99;40.65;;
61270;Laerm;47150;53.032;8.960;2023-02-02T16:08:13;39.54;38.16;40.64;;
61270;Laerm;47150;53.032;8.960;2023-02-02T16:10:41;39.50;38.06;40.69;;
61270;Laerm;47150;53.032;8.960;2023-02-02T16:13:26;39.49;38.03;40.67;;
61270;Laerm;47150;53.032;8.960;2023-02-02T16:15:59;39.47;38.20;41.08;;
61270;Laerm;47150;53.032;8.960;2023-02-02T16:18:25;39.47;38.13;40.64;;
61270;Laerm;47150;53.032;8.960;2023-02-02T16:20:53;39.48;38.23;40.60;;
61270;Laerm;47150;53.032;8.960;2023-02-02T16:23:30;39.48;38.19;40.76;;
61270;Laerm;47150;53.032;8.960;2023-02-02T16:25:59;39.44;38.30;40.52;;
61270;Laerm;47150;53.032;8.960;2023-02-02T16:28:27;39.40;38.01;40.68;;
61270;Laerm;47150;53.032;8.960;2023-02-02T16:30:53;39.37;37.92;40.53;;
61270;Laerm;47150;53.032;8.960;2023-02-02T16:33:40;39.30;38.08;40.53;;
61270;Laerm;47150;53.032;8.960;2023-02-02T16:36:24;39.25;38.02;40.29;;
61270;Laerm;47150;53.032;8.960;2023-02-02T16:38:51;39.21;37.76;40.45;;
61270;Laerm;47150;53.032;8.960;2023-02-02T16:41:29;39.16;37.95;40.47;;
61270;Laerm;47150;53.032;8.960;2023-02-02T16:44:29;39.15;37.74;40.30;;
61270;Laerm;47150;53.032;8.960;2023-02-02T16:46:56;39.13;37.95;40.26;;
61270;Laerm;47150;53.032;8.960;2023-02-02T16:49:25;39.10;37.98;40.32;;
61270;Laerm;47150;53.032;8.960;2023-02-02T16:52:15;39.10;37.85;40.21;;
61270;Laerm;47150;53.032;8.960;2023-02-02T16:54:52;39.08;37.87;40.19;;
61270;Laerm;47150;53.032;8.960;2023-02-02T16:57:26;39.09;37.92;40.18;;
61270;Laerm;47150;53.032;8.960;2023-02-02T16:59:57;39.07;37.78;40.48;;
61270;Laerm;47150;53.032;8.960;2023-02-02T17:02:44;39.06;37.91;40.28;;
61270;Laerm;47150;53.032;8.960;2023-02-02T17:05:28;39.04;37.69;40.17;;
61270;Laerm;47150;53.032;8.960;2023-02-02T17:08:03;39.05;37.85;40.22;;
61270;Laerm;47150;53.032;8.960;2023-02-02T17:10:36;38.94;37.43;40.12;;
61270;Laerm;47150;53.032;8.960;2023-02-02T17:15:58;38.09;36.77;39.22;;
61270;Laerm;47150;53.032;8.960;2023-02-02T17:18:25;38.01;36.84;39.28;;
61270;Laerm;47150;53.032;8.960;2023-02-02T17:20:54;37.69;36.35;38.75;;
61270;Laerm;47150;53.032;8.960;2023-02-02T17:23:29;37.50;36.38;38.68;;